Time;durP1;ratioP1;P1;durP2;ratioP2;P2;SDS_P1;SDS_P2;PMS_P1;PMS_P2;Temp;Humidity;BMP_temperature;BMP_pressure;BME280_temperature;BME280_humidity;BME280_pressure;Samples;Min_cycle;Max_cycle;Signal;HPM_P1;HPM_P2
2022/08/15 00:01:36;;;;;;;16.42;8.38;;;24.30;66.40;;;;;;7398792;19;20066;-85
2022/08/15 00:04:08;;;;;;;14.27;8.35;;;24.30;66.00;;;;;;7377818;19;20327;-83
2022/08/15 00:06:42;;;;;;;12.90;8.85;;;24.30;66.00;;;;;;7381393;19;20031;-84
2022/08/15 00:09:15;;;;;;;16.20;9.25;;;24.20;65.90;;;;;;7377743;19;20015;-84
2022/08/15 00:11:46;;;;;;;14.88;9.55;;;24.20;65.90;;;;;;7376493;19;20031;-84
2022/08/15 00:14:21;;;;;;;11.30;8.23;;;24.20;65.70;;;;;;7379384;19;20082;-84
2022/08/15 00:16:51;;;;;;;15.52;9.60;;;24.10;66.00;;;;;;7374531;19;20082;-84
2022/08/15 00:19:23;;;;;;;16.52;9.30;;;24.10;67.10;;;;;;7397850;19;20077;-84
2022/08/15 00:21:59;;;;;;;16.25;10.52;;;24.10;66.20;;;;;;7375437;19;20022;-85
2022/08/15 00:24:31;;;;;;;16.77;9.88;;;24.00;65.60;;;;;;7382133;19;20046;-85
2022/08/15 00:27:02;;;;;;;13.75;9.70;;;24.00;65.60;;;;;;7382682;19;20023;-86
2022/08/15 00:29:32;;;;;;;17.15;9.48;;;24.00;65.30;;;;;;7382469;19;20018;-86
2022/08/15 00:32:02;;;;;;;21.45;9.82;;;24.00;65.90;;;;;;7379516;19;20027;-85
2022/08/15 00:34:31;;;;;;;20.92;10.77;;;24.00;65.80;;;;;;7409683;19;20046;-85
2022/08/15 00:37:05;;;;;;;18.20;9.60;;;24.00;65.60;;;;;;7394030;19;20006;-85
2022/08/15 00:39:35;;;;;;;18.95;11.13;;;24.00;65.50;;;;;;7398258;19;20097;-85
2022/08/15 00:42:07;;;;;;;22.48;12.38;;;24.00;65.50;;;;;;7393218;19;20018;-85
2022/08/15 00:44:40;;;;;;;22.58;11.60;;;23.90;65.30;;;;;;7384369;19;20066;-84
2022/08/15 00:47:11;;;;;;;17.50;11.18;;;23.90;65.10;;;;;;7392238;19;20015;-85
2022/08/15 00:49:41;;;;;;;18.13;11.32;;;23.80;65.20;;;;;;7395174;19;20490;-84
2022/08/15 00:52:16;;;;;;;17.30;10.70;;;23.80;65.60;;;;;;7415403;19;20014;-87
2022/08/15 00:54:49;;;;;;;14.38;11.98;;;23.80;65.30;;;;;;7386135;19;20014;-85
2022/08/15 00:57:22;;;;;;;18.20;12.07;;;23.80;65.50;;;;;;7384649;19;20101;-85
2022/08/15 00:59:55;;;;;;;20.27;12.27;;;23.80;65.40;;;;;;7381529;19;20027;-84
2022/08/15 01:02:29;;;;;;;17.77;11.13;;;23.80;65.70;;;;;;7378106;19;20030;-84
2022/08/15 01:04:59;;;;;;;25.77;10.85;;;23.80;65.80;;;;;;7391058;19;20015;-86
2022/08/15 01:07:31;;;;;;;18.73;11.25;;;23.70;65.50;;;;;;7405522;19;20006;-84
2022/08/15 01:10:00;;;;;;;19.73;11.82;;;23.70;65.50;;;;;;7380935;19;20092;-84
2022/08/15 01:12:30;;;;;;;22.52;12.38;;;23.70;65.60;;;;;;7381910;19;20017;-84
2022/08/15 01:15:02;;;;;;;17.63;11.43;;;23.80;65.40;;;;;;7382436;19;20404;-85
2022/08/15 01:17:33;;;;;;;15.27;11.13;;;23.70;65.20;;;;;;7382244;19;20022;-86
2022/08/15 01:20:06;;;;;;;18.10;11.07;;;23.60;65.50;;;;;;7386964;19;20046;-85
2022/08/15 01:23:02;;;;;;;28.08;12.02;;;23.60;66.00;;;;;;7396103;19;20115;-83
2022/08/15 01:25:36;;;;;;;20.65;11.85;;;23.60;65.90;;;;;;7399096;19;20073;-85
2022/08/15 01:28:08;;;;;;;14.50;11.68;;;23.60;65.90;;;;;;7377519;19;20034;-85
2022/08/15 01:30:45;;;;;;;20.95;12.60;;;23.60;65.80;;;;;;7393485;19;20084;-86
2022/08/15 01:33:14;;;;;;;18.65;12.00;;;23.60;65.80;;;;;;7401737;19;20013;-86
2022/08/15 01:35:43;;;;;;;17.58;11.88;;;23.60;65.90;;;;;;7386998;19;20446;-86
2022/08/15 01:38:22;;;;;;;20.40;13.52;;;23.60;65.50;;;;;;7381348;19;20481;-85
2022/08/15 01:41:01;;;;;;;13.57;10.55;;;23.60;65.60;;;;;;7379867;19;20075;-86
2022/08/15 01:43:33;;;;;;;22.92;11.20;;;23.60;65.50;;;;;;7407437;19;20014;-85
2022/08/15 01:46:06;;;;;;;22.75;11.10;;;23.60;65.10;;;;;;7381740;19;20010;-85
2022/08/15 01:48:41;;;;;;;17.23;9.68;;;23.60;65.10;;;;;;7381101;19;20026;-85
2022/08/15 01:51:12;;;;;;;16.25;10.25;;;23.60;65.30;;;;;;7381285;19;20011;-85
2022/08/15 01:53:44;;;;;;;16.60;10.82;;;23.60;65.30;;;;;;7385548;19;20022;-84
2022/08/15 01:56:22;;;;;;;14.55;11.50;;;23.60;65.20;;;;;;7383156;19;20011;-85
2022/08/15 01:58:51;;;;;;;17.90;11.60;;;23.60;64.90;;;;;;7386557;19;20010;-84
2022/08/15 02:01:22;;;;;;;15.10;11.32;;;23.60;64.60;;;;;;7407851;19;20038;-85
2022/08/15 02:03:52;;;;;;;14.27;11.35;;;23.50;64.80;;;;;;7400095;19;20011;-86
2022/08/15 02:06:23;;;;;;;22.55;11.63;;;23.50;65.00;;;;;;7403442;19;20015;-85
2022/08/15 02:08:52;;;;;;;;;;;23.50;65.20;;;;;;7405062;19;20034;-85
2022/08/15 02:11:27;;;;;;;17.35;11.50;;;23.50;65.10;;;;;;7402520;19;19958;-84
2022/08/15 02:13:57;;;;;;;20.77;11.48;;;23.40;65.00;;;;;;7402051;19;19991;-86
2022/08/15 02:16:30;;;;;;;19.00;12.50;;;23.40;65.00;;;;;;7420694;19;20023;-85
2022/08/15 02:18:59;;;;;;;18.63;12.00;;;23.40;65.00;;;;;;7398627;19;20034;-86
2022/08/15 02:21:29;;;;;;;17.40;12.48;;;23.40;65.00;;;;;;7396756;19;20019;-85
2022/08/15 02:23:59;;;;;;;24.48;12.20;;;23.40;65.20;;;;;;7391273;19;20007;-85
2022/08/15 02:26:30;;;;;;;24.85;12.82;;;23.40;65.10;;;;;;7388781;19;20010;-87
2022/08/15 02:28:59;;;;;;;22.67;13.23;;;23.30;65.00;;;;;;7406793;19;20010;-86
2022/08/15 02:31:29;;;;;;;27.13;13.38;;;23.30;64.70;;;;;;7424370;19;20018;-86
2022/08/15 02:34:00;;;;;;;16.48;12.68;;;23.30;64.70;;;;;;7405214;19;20014;-87
2022/08/15 02:36:32;;;;;;;21.65;14.23;;;23.30;64.70;;;;;;7405474;19;20026;-87
2022/08/15 02:39:02;;;;;;;26.13;13.07;;;23.20;64.40;;;;;;7404308;19;20016;-87
2022/08/15 02:41:36;;;;;;;23.53;13.10;;;23.20;64.80;;;;;;7404829;19;20002;-86
2022/08/15 02:44:06;;;;;;;18.63;12.48;;;23.20;65.00;;;;;;7403723;19;20010;-86
2022/08/15 02:46:37;;;;;;;15.27;12.05;;;23.20;64.80;;;;;;7405748;19;20014;-85
2022/08/15 02:49:12;;;;;;;14.93;11.98;;;23.20;64.70;;;;;;7409398;19;20070;-87
2022/08/15 02:51:42;;;;;;;17.52;12.15;;;23.20;64.70;;;;;;7390610;19;20014;-87
2022/08/15 02:54:12;;;;;;;23.38;12.93;;;23.20;64.60;;;;;;7390694;19;20024;-88
2022/08/15 02:56:44;;;;;;;17.45;12.27;;;23.20;64.80;;;;;;7394913;19;20006;-87
2022/08/15 02:59:13;;;;;;;18.92;13.02;;;23.20;64.80;;;;;;7393674;19;20054;-87
2022/08/15 03:01:44;;;;;;;21.90;13.63;;;23.20;64.50;;;;;;7345943;19;20026;-86
2022/08/15 03:04:15;;;;;;;19.03;12.20;;;23.20;64.80;;;;;;7421549;19;20314;-87
2022/08/15 03:06:45;;;;;;;18.52;11.90;;;23.10;64.70;;;;;;7383828;19;20345;-85
2022/08/15 03:09:17;;;;;;;23.50;12.30;;;23.10;64.70;;;;;;7381111;19;20018;-85
2022/08/15 03:11:48;;;;;;;18.67;12.25;;;23.20;64.40;;;;;;7381532;19;20028;-86
2022/08/15 03:14:19;;;;;;;;;;;23.20;65.00;;;;;;7380702;19;20022;-86
2022/08/15 03:16:49;;;;;;;19.20;12.85;;;23.20;63.80;;;;;;7382195;19;19926;-84
2022/08/15 03:19:22;;;;;;;22.65;12.93;;;23.10;63.80;;;;;;7409378;19;20018;-86
2022/08/15 03:21:51;;;;;;;19.25;12.27;;;23.10;64.00;;;;;;7386324;19;20034;-85
2022/08/15 03:24:22;;;;;;;20.88;13.73;;;23.00;64.20;;;;;;7382747;19;20018;-87
2022/08/15 03:26:53;;;;;;;21.67;12.63;;;22.90;64.20;;;;;;7389011;19;20011;-86
2022/08/15 03:29:23;;;;;;;;;;;22.90;64.50;;;;;;7403781;19;20006;-85
2022/08/15 03:31:53;;;;;;;21.25;12.75;;;22.90;65.00;;;;;;7400284;19;20408;-87
2022/08/15 03:34:26;;;;;;;25.67;13.35;;;22.90;64.70;;;;;;7427129;19;20014;-87
2022/08/15 03:36:55;;;;;;;21.50;12.25;;;22.90;64.80;;;;;;7401847;19;20299;-87
2022/08/15 03:39:24;;;;;;;22.40;12.07;;;22.90;64.50;;;;;;7391533;19;20006;-86
2022/08/15 03:41:55;;;;;;;14.90;11.60;;;22.90;64.40;;;;;;7391604;19;20019;-87
2022/08/15 03:44:25;;;;;;;;;;;22.90;64.40;;;;;;7394346;19;20018;-87
2022/08/15 03:46:54;;;;;;;26.67;11.35;;;22.90;64.50;;;;;;7392944;19;20226;-87
2022/08/15 03:49:23;;;;;;;15.52;11.13;;;22.90;64.60;;;;;;7414678;19;20018;-87
2022/08/15 03:51:52;;;;;;;19.92;12.95;;;22.80;64.50;;;;;;7395379;19;20014;-87
2022/08/15 03:54:24;;;;;;;19.15;12.70;;;22.80;64.50;;;;;;7394114;19;20014;-87
2022/08/15 03:56:55;;;;;;;22.33;14.15;;;22.80;64.60;;;;;;7397209;19;20011;-87
2022/08/15 03:59:23;;;;;;;;;;;22.70;64.80;;;;;;7402101;19;20017;-88
2022/08/15 04:01:52;;;;;;;23.42;13.60;;;22.70;64.30;;;;;;7405919;19;19919;-87
2022/08/15 04:04:21;;;;;;;20.17;12.70;;;22.70;64.10;;;;;;7417439;19;20011;-87
2022/08/15 04:06:52;;;;;;;22.45;12.48;;;22.60;64.50;;;;;;7391300;19;20021;-86
2022/08/15 04:09:21;;;;;;;26.17;12.60;;;22.70;64.70;;;;;;7394579;19;20027;-86
2022/08/15 04:11:50;;;;;;;21.65;13.13;;;22.70;64.50;;;;;;7395299;19;20042;-86
2022/08/15 04:14:21;;;;;;;19.92;12.30;;;22.70;64.30;;;;;;7401494;19;20006;-85
2022/08/15 04:16:50;;;;;;;21.92;12.32;;;22.70;63.90;;;;;;7404285;19;20019;-85
2022/08/15 04:19:19;;;;;;;20.02;12.57;;;22.70;64.00;;;;;;7426049;19;20007;-86
2022/08/15 04:21:49;;;;;;;20.02;12.45;;;22.70;64.20;;;;;;7408654;19;20003;-87
2022/08/15 04:24:17;;;;;;;15.18;11.55;;;22.70;64.10;;;;;;7409022;19;20010;-88
2022/08/15 04:26:46;;;;;;;21.98;12.73;;;22.70;63.80;;;;;;7400554;19;20006;-86
2022/08/15 04:29:16;;;;;;;21.58;11.80;;;22.60;63.80;;;;;;7400330;19;20011;-87
2022/08/15 04:31:47;;;;;;;20.88;11.18;;;22.60;64.10;;;;;;7400765;19;20014;-86
2022/08/15 04:34:16;;;;;;;19.67;12.05;;;22.60;64.20;;;;;;7419053;19;20335;-87
2022/08/15 04:36:46;;;;;;;22.30;11.23;;;22.60;63.80;;;;;;7395085;19;20014;-87
2022/08/15 04:39:15;;;;;;;22.73;12.20;;;22.60;63.60;;;;;;7389442;19;20623;-87
2022/08/15 04:41:43;;;;;;;16.13;11.00;;;22.50;63.50;;;;;;7387868;19;20014;-86
2022/08/15 04:44:13;;;;;;;15.63;11.73;;;22.50;64.80;;;;;;7388648;19;20070;-86
2022/08/15 04:46:42;;;;;;;23.38;12.27;;;22.50;63.70;;;;;;7393308;19;20042;-87
2022/08/15 04:49:13;;;;;;;16.90;11.90;;;22.50;63.70;;;;;;7411800;19;20019;-86
2022/08/15 04:51:42;;;;;;;;;;;22.50;64.00;;;;;;7386724;19;20019;-86
2022/08/15 04:54:10;;;;;;;21.15;11.40;;;22.50;64.40;;;;;;7383171;19;19923;-86
2022/08/15 04:56:39;;;;;;;22.27;10.00;;;22.40;64.10;;;;;;7386042;19;20010;-87
2022/08/15 04:59:08;;;;;;;16.27;10.73;;;22.40;64.00;;;;;;7378398;19;20028;-86
2022/08/15 05:01:37;;;;;;;17.02;10.98;;;22.40;64.00;;;;;;7379775;19;20031;-84
2022/08/15 05:04:05;;;;;;;17.35;10.85;;;22.40;64.00;;;;;;7400284;19;20085;-86
2022/08/15 05:06:38;;;;;;;18.13;10.15;;;22.40;63.80;;;;;;7392031;19;20022;-86
2022/08/15 05:09:06;;;;;;;17.17;9.93;;;22.40;63.80;;;;;;7394210;19;20366;-86
2022/08/15 05:11:35;;;;;;;18.17;11.02;;;22.40;63.70;;;;;;7395556;19;20010;-86
2022/08/15 05:14:04;;;;;;;16.65;10.63;;;22.40;64.20;;;;;;7388126;19;20344;-86
2022/08/15 05:19:02;;;;;;;19.77;11.90;;;22.40;63.40;;;;;;7397056;19;20014;-89
2022/08/15 05:21:32;;;;;;;19.50;10.43;;;22.30;63.90;;;;;;7408756;19;20007;-89
2022/08/15 05:24:03;;;;;;;22.17;10.65;;;22.30;64.20;;;;;;7391848;19;20003;-88
2022/08/15 05:28:59;;;;;;;17.50;9.98;;;22.40;63.90;;;;;;7376671;19;19915;-87
2022/08/15 05:31:29;;;;;;;23.33;10.70;;;22.40;63.70;;;;;;7419059;19;20006;-87
2022/08/15 05:33:59;;;;;;;23.35;10.63;;;22.40;63.70;;;;;;7393340;19;20014;-87
2022/08/15 05:36:28;;;;;;;18.58;12.40;;;22.40;64.30;;;;;;7393662;19;20010;-88
2022/08/15 05:39:01;;;;;;;28.58;18.40;;;22.40;64.60;;;;;;7392143;19;20022;-87
2022/08/15 05:41:53;;;;;;;27.60;20.30;;;22.40;64.20;;;;;;7402393;19;20007;-88
2022/08/15 05:44:32;;;;;;;18.38;12.90;;;22.40;64.50;;;;;;7396753;19;20027;-88
2022/08/15 05:47:07;;;;;;;14.38;11.77;;;22.40;65.60;;;;;;7385167;19;20015;-87
2022/08/15 05:49:45;;;;;;;14.60;10.52;;;22.40;64.70;;;;;;7395026;19;20010;-86
2022/08/15 05:52:28;;;;;;;17.02;11.32;;;22.40;64.70;;;;;;7412583;19;20111;-86
2022/08/15 05:55:07;;;;;;;22.15;12.45;;;22.40;64.90;;;;;;7392372;19;20035;-87
2022/08/15 05:57:54;;;;;;;27.15;15.20;;;22.50;65.10;;;;;;7391835;19;20035;-87
2022/08/15 06:00:24;;;;;;;20.65;13.35;;;22.50;65.70;;;;;;7394667;19;20024;-87
2022/08/15 06:02:57;;;;;;;18.63;12.50;;;22.50;64.80;;;;;;7389464;19;20010;-87
2022/08/15 06:05:31;;;;;;;15.15;11.20;;;22.50;64.60;;;;;;7389908;19;20035;-86
2022/08/15 06:08:04;;;;;;;19.48;11.30;;;22.60;64.90;;;;;;7392503;19;20018;-86
2022/08/15 06:10:38;;;;;;;17.48;13.02;;;22.60;65.00;;;;;;7416946;19;20010;-88
2022/08/15 06:13:13;;;;;;;23.75;11.68;;;22.60;65.00;;;;;;7397246;19;20015;-87
2022/08/15 06:15:51;;;;;;;16.70;12.95;;;22.70;64.80;;;;;;7395948;19;20023;-87
2022/08/15 06:18:21;;;;;;;21.30;16.50;;;22.70;65.10;;;;;;7397033;19;20017;-87
2022/08/15 06:20:56;;;;;;;26.60;19.23;;;22.70;65.20;;;;;;7395657;19;20019;-87
2022/08/15 06:23:38;;;;;;;28.45;21.00;;;22.70;65.40;;;;;;7404213;19;20007;-86
2022/08/15 06:26:17;;;;;;;22.90;19.05;;;22.70;66.70;;;;;;7404301;19;20010;-86
2022/08/15 06:29:04;;;;;;;24.55;16.90;;;22.70;66.10;;;;;;7399978;19;20010;-87
2022/08/15 06:31:36;;;;;;;21.65;17.35;;;22.80;66.00;;;;;;7419450;19;20013;-86
2022/08/15 06:34:12;;;;;;;24.20;15.15;;;22.90;66.10;;;;;;7402169;19;20019;-86
2022/08/15 06:36:46;;;;;;;24.60;15.38;;;22.90;66.10;;;;;;7397989;19;20018;-87
2022/08/15 06:39:25;;;;;;;17.38;13.68;;;23.00;66.00;;;;;;7401189;19;20003;-87
2022/08/15 06:42:04;;;;;;;26.02;16.45;;;23.00;66.70;;;;;;7403004;19;20014;-86
2022/08/15 06:44:36;;;;;;;34.22;19.65;;;23.10;66.10;;;;;;7395458;19;20054;-87
2022/08/15 06:47:07;;;;;;;26.38;17.55;;;23.10;66.40;;;;;;7391271;19;20019;-86
2022/08/15 06:49:40;;;;;;;21.13;14.10;;;23.20;66.70;;;;;;7401377;19;20030;-85
2022/08/15 06:52:10;;;;;;;19.85;13.50;;;23.20;66.60;;;;;;7414954;19;20055;-87
2022/08/15 06:54:43;;;;;;;21.95;13.30;;;23.20;66.60;;;;;;7391379;19;20007;-87
2022/08/15 06:57:18;;;;;;;24.15;13.85;;;23.30;67.00;;;;;;7397784;19;20023;-87
2022/08/15 07:00:01;;;;;;;16.23;12.25;;;23.30;66.90;;;;;;7399405;19;20022;-86
2022/08/15 07:02:47;;;;;;;25.73;12.63;;;23.40;66.60;;;;;;7406945;19;20030;-87
2022/08/15 07:05:20;;;;;;;17.42;11.73;;;23.40;66.30;;;;;;7407423;19;20018;-87
2022/08/15 07:07:56;;;;;;;21.52;11.30;;;23.50;65.70;;;;;;7403377;19;20042;-87
2022/08/15 07:10:29;;;;;;;26.58;11.88;;;23.50;65.50;;;;;;7415932;19;20018;-86
2022/08/15 07:13:08;;;;;;;25.25;12.18;;;23.50;65.60;;;;;;7403675;19;20023;-87
2022/08/15 07:15:51;;;;;;;18.67;11.75;;;23.60;65.70;;;;;;7394552;19;20089;-87
2022/08/15 07:18:27;;;;;;;20.65;12.07;;;23.60;65.50;;;;;;7396233;19;20021;-87
2022/08/15 07:21:01;;;;;;;18.67;12.90;;;23.70;65.40;;;;;;7402466;19;20062;-87
2022/08/15 07:23:33;;;;;;;20.80;13.27;;;23.70;66.60;;;;;;7402029;19;20038;-88
2022/08/15 07:26:03;;;;;;;;;;;23.80;66.20;;;;;;7398509;19;20011;-87
2022/08/15 07:28:35;;;;;;;27.83;12.13;;;23.80;65.90;;;;;;7414549;19;19928;-86
2022/08/15 07:31:09;;;;;;;;;;;23.80;65.70;;;;;;7391456;19;20015;-86
2022/08/15 07:33:42;;;;;;;19.85;10.93;;;24.00;66.00;;;;;;7393439;19;19922;-86
2022/08/15 07:36:19;;;;;;;21.70;11.75;;;23.90;65.60;;;;;;7392137;19;20011;-85
2022/08/15 07:38:49;;;;;;;24.27;12.18;;;24.00;65.80;;;;;;7389474;19;20034;-85
2022/08/15 07:41:25;;;;;;;20.67;12.20;;;24.10;65.80;;;;;;7387031;19;20055;-85
2022/08/15 07:43:59;;;;;;;19.20;11.40;;;24.10;65.60;;;;;;7386355;19;20035;-87
2022/08/15 07:46:41;;;;;;;22.45;11.55;;;24.20;65.40;;;;;;7403957;19;20011;-87
2022/08/15 07:49:19;;;;;;;21.83;9.80;;;24.20;65.30;;;;;;7377950;19;20014;-85
2022/08/15 07:51:51;;;;;;;17.27;9.18;;;24.30;64.70;;;;;;7386961;19;20015;-85
2022/08/15 07:54:26;;;;;;;17.83;9.15;;;24.40;64.30;;;;;;7389439;19;20014;-86
2022/08/15 07:56:58;;;;;;;16.80;9.13;;;24.40;63.90;;;;;;7387118;19;20014;-83
2022/08/15 07:59:30;;;;;;;17.33;9.15;;;24.40;63.60;;;;;;7377945;19;20015;-84
2022/08/15 08:02:13;;;;;;;12.35;8.38;;;24.40;64.50;;;;;;7374535;19;20724;-82
2022/08/15 08:04:44;;;;;;;22.50;9.35;;;24.40;64.20;;;;;;7380830;19;20030;-86
2022/08/15 08:07:26;;;;;;;13.60;8.85;;;24.50;64.10;;;;;;7394932;19;20014;-85
2022/08/15 08:10:00;;;;;;;19.20;9.10;;;24.50;64.60;;;;;;7380762;19;20023;-85
2022/08/15 08:12:35;;;;;;;12.07;8.18;;;24.60;64.50;;;;;;7375862;19;20014;-84
2022/08/15 08:15:14;;;;;;;14.32;8.05;;;24.60;64.20;;;;;;7375907;19;20018;-81
2022/08/15 08:17:51;;;;;;;15.93;8.50;;;24.60;63.90;;;;;;7375019;19;20011;-83
2022/08/15 08:20:25;;;;;;;13.00;8.30;;;24.60;63.50;;;;;;7376580;19;20556;-82
2022/08/15 08:23:00;;;;;;;12.60;7.18;;;24.70;63.50;;;;;;7376112;19;20030;-82
2022/08/15 08:25:34;;;;;;;18.45;7.72;;;24.70;63.30;;;;;;7400345;19;20022;-85
2022/08/15 08:28:13;;;;;;;13.68;7.78;;;24.70;63.20;;;;;;7375845;19;20011;-81
2022/08/15 08:30:53;;;;;;;13.48;8.00;;;24.70;63.70;;;;;;7375268;19;20522;-81
2022/08/15 08:33:38;;;;;;;15.38;7.55;;;24.80;63.90;;;;;;7375086;19;20059;-81
2022/08/15 08:36:15;;;;;;;19.83;8.48;;;24.80;64.20;;;;;;7377662;19;20051;-82
2022/08/15 08:38:48;;;;;;;17.33;8.43;;;24.80;64.20;;;;;;7378611;19;20103;-84
2022/08/15 08:41:34;;;;;;;16.42;8.18;;;24.80;64.20;;;;;;7379394;19;20014;-84
2022/08/15 08:44:18;;;;;;;15.27;7.95;;;24.80;64.10;;;;;;7386294;19;20078;-87
2022/08/15 08:47:11;;;;;;;15.45;7.50;;;24.90;64.20;;;;;;7385476;19;20066;-82
2022/08/15 08:49:50;;;;;;;13.75;5.75;;;24.90;63.40;;;;;;7382505;19;20025;-85
2022/08/15 08:52:27;;;;;;;10.43;5.50;;;24.80;62.60;;;;;;7413269;19;20014;-85
2022/08/15 08:55:02;;;;;;;14.68;5.28;;;24.80;62.50;;;;;;7381351;19;20017;-80
2022/08/15 08:57:36;;;;;;;12.48;4.68;;;24.70;62.60;;;;;;7389744;19;20016;-84
2022/08/15 09:00:10;;;;;;;6.97;4.93;;;24.70;63.60;;;;;;7393837;19;20007;-83
2022/08/15 09:02:43;;;;;;;7.47;3.90;;;24.70;63.20;;;;;;7393116;19;20027;-86
2022/08/15 09:05:24;;;;;;;8.75;3.88;;;24.70;63.30;;;;;;7387309;19;20309;-82
2022/08/15 09:07:58;;;;;;;4.50;3.33;;;24.70;63.30;;;;;;7384296;19;20010;-83
2022/08/15 09:10:32;;;;;;;5.18;2.95;;;24.70;63.50;;;;;;7406583;19;20740;-86
2022/08/15 09:15:45;;;;;;;6.15;2.90;;;24.70;63.50;;;;;;7374595;19;20014;-83
2022/08/15 09:18:29;;;;;;;4.50;3.15;;;24.70;63.70;;;;;;7374455;19;20074;-80
2022/08/15 09:21:01;;;;;;;6.15;3.33;;;24.60;63.50;;;;;;7377930;19;20074;-84
2022/08/15 09:23:36;;;;;;;3.72;2.70;;;24.70;63.50;;;;;;7376297;19;20467;-84
2022/08/15 09:26:14;;;;;;;4.47;3.00;;;24.70;63.50;;;;;;7377568;19;20089;-84
2022/08/15 09:28:46;;;;;;;4.35;3.22;;;24.70;63.60;;;;;;7377137;19;20023;-83
2022/08/15 09:31:18;;;;;;;5.43;2.88;;;24.70;63.50;;;;;;7397202;19;20518;-84
2022/08/15 09:34:26;;;;;;;6.72;3.20;;;24.70;63.60;;;;;;7378721;19;20034;-84
2022/08/15 09:37:17;;;;;;;4.93;3.25;;;24.70;63.80;;;;;;7382066;19;20409;-84
2022/08/15 09:40:13;;;;;;;5.38;3.90;;;24.60;63.60;;;;;;7380589;19;20031;-84
2022/08/15 09:43:07;;;;;;;6.38;4.55;;;24.60;64.50;;;;;;7375304;19;20477;-83
2022/08/15 09:45:51;;;;;;;6.18;4.55;;;24.60;65.60;;;;;;7375231;19;20489;-83
2022/08/15 09:48:34;;;;;;;8.98;4.93;;;24.60;66.40;;;;;;7373600;19;20034;-82
2022/08/15 09:51:18;;;;;;;8.07;4.82;;;24.60;67.00;;;;;;7374829;19;20011;-81
2022/08/15 09:54:11;;;;;;;6.95;5.32;;;24.50;67.20;;;;;;7373347;19;20321;-81
2022/08/15 09:56:41;;;;;;;9.18;5.70;;;24.40;68.30;;;;;;7372162;19;20014;-81
2022/08/15 09:59:17;;;;;;;7.30;4.85;;;24.50;68.60;;;;;;7374530;19;20094;-81
2022/08/15 10:01:50;;;;;;;6.85;5.00;;;24.40;68.30;;;;;;7374380;19;20014;-82
2022/08/15 10:04:23;;;;;;;6.05;5.25;;;24.40;68.60;;;;;;7394375;19;20114;-82
2022/08/15 10:07:15;;;;;;;9.52;5.28;;;24.40;68.60;;;;;;7375829;19;20014;-83
2022/08/15 10:10:06;;;;;;;5.10;4.53;;;24.40;68.60;;;;;;7380541;19;20074;-82
2022/08/15 10:12:37;;;;;;;5.47;4.93;;;24.40;68.80;;;;;;7398940;19;20042;-82
2022/08/15 10:15:30;;;;;;;7.10;5.32;;;24.40;68.60;;;;;;7403892;19;20023;-82
2022/08/15 10:18:00;;;;;;;8.07;5.07;;;24.50;68.90;;;;;;7389425;19;20078;-82
2022/08/15 10:21:02;;;;;;;6.28;5.65;;;24.50;69.00;;;;;;7380810;19;20049;-82
2022/08/15 10:23:45;;;;;;;7.00;5.57;;;24.50;68.90;;;;;;7375877;19;20046;-82
2022/08/15 10:26:25;;;;;;;7.55;5.78;;;24.50;68.00;;;;;;7374463;19;20021;-82
2022/08/15 10:29:04;;;;;;;9.25;5.70;;;24.50;68.30;;;;;;7374824;19;20019;-81
2022/08/15 10:31:42;;;;;;;9.30;6.38;;;24.40;68.00;;;;;;7397606;19;20006;-82
2022/08/15 10:34:29;;;;;;;8.07;6.75;;;24.30;68.20;;;;;;7375395;19;20015;-81
2022/08/15 10:37:23;;;;;;;14.48;5.88;;;24.20;68.70;;;;;;7381859;19;20018;-82
2022/08/15 10:40:21;;;;;;;7.00;6.13;;;24.20;69.10;;;;;;7398477;19;20396;-83
2022/08/15 10:43:04;;;;;;;6.32;5.10;;;24.10;70.20;;;;;;7403885;19;20006;-85
2022/08/15 10:45:41;;;;;;;5.25;4.50;;;24.10;70.40;;;;;;7406094;19;20015;-84
2022/08/15 10:48:24;;;;;;;3.72;3.35;;;24.10;69.70;;;;;;7404125;19;20010;-85
2022/08/15 10:50:57;;;;;;;3.00;2.70;;;24.20;69.50;;;;;;7385929;19;20010;-83
2022/08/15 10:53:47;;;;;;;3.17;2.63;;;24.30;68.90;;;;;;7377802;19;20053;-83
2022/08/15 10:56:21;;;;;;;3.72;3.03;;;24.30;70.10;;;;;;7377135;19;20446;-86
2022/08/15 10:59:01;;;;;;;10.60;5.88;;;24.50;70.30;;;;;;7381228;19;20002;-86
2022/08/15 11:01:33;;;;;;;6.28;3.65;;;24.40;71.50;;;;;;7396276;19;20025;-85
2022/08/15 11:04:07;;;;;;;4.28;3.83;;;24.60;71.30;;;;;;7377446;19;20013;-85
2022/08/15 11:06:45;;;;;;;4.60;3.70;;;24.80;71.20;;;;;;7377351;19;20015;-84
2022/08/15 11:09:18;;;;;;;5.13;3.10;;;24.90;71.30;;;;;;7374955;19;20006;-83
2022/08/15 11:11:55;;;;;;;3.15;2.58;;;24.90;69.10;;;;;;7374817;19;20095;-85
2022/08/15 11:14:29;;;;;;;5.72;2.33;;;24.90;68.20;;;;;;7375607;19;20014;-83
2022/08/15 11:17:00;;;;;;;2.40;2.20;;;24.90;67.40;;;;;;7373106;19;20042;-84
2022/08/15 11:19:33;;;;;;;2.20;2.00;;;24.90;68.00;;;;;;7397453;19;20015;-87
2022/08/15 11:22:04;;;;;;;2.33;2.13;;;24.80;68.50;;;;;;7374524;19;20011;-84
2022/08/15 11:24:37;;;;;;;2.65;2.40;;;24.80;68.50;;;;;;7372682;19;20024;-84
2022/08/15 11:27:14;;;;;;;4.03;2.50;;;24.90;68.20;;;;;;7371780;19;20054;-85
2022/08/15 11:29:47;;;;;;;2.55;2.35;;;24.90;69.20;;;;;;7373875;19;20011;-84
2022/08/15 11:32:29;;;;;;;2.80;2.60;;;25.00;68.90;;;;;;7381465;19;20018;-82
2022/08/15 11:35:00;;;;;;;4.18;2.83;;;25.10;68.90;;;;;;7381393;19;20018;-88
2022/08/15 11:37:32;;;;;;;3.25;2.80;;;25.20;68.90;;;;;;7417481;19;20034;-87
2022/08/15 11:43:10;;;;;;;2.90;2.55;;;25.30;68.50;;;;;;7364479;19;20498;-81
2022/08/15 11:45:45;;;;;;;2.53;2.30;;;25.40;67.40;;;;;;7388395;19;20041;-85
2022/08/15 11:48:16;;;;;;;3.35;2.75;;;25.40;65.50;;;;;;7373374;19;20017;-84
2022/08/15 11:50:58;;;;;;;3.53;2.88;;;25.50;65.80;;;;;;7374147;19;20014;-84
2022/08/15 11:53:31;;;;;;;3.03;2.30;;;25.40;66.50;;;;;;7374221;19;20711;-88
2022/08/15 11:56:01;;;;;;;1.60;1.50;;;25.50;64.00;;;;;;7365806;19;20089;-86
2022/08/15 11:58:36;;;;;;;1.60;1.50;;;25.60;63.50;;;;;;7397114;19;20014;-85
2022/08/15 12:01:30;;;;;;;1.80;1.70;;;25.50;62.70;;;;;;7374511;19;20078;-85
2022/08/15 12:04:05;;;;;;;1.92;1.70;;;25.50;63.30;;;;;;7373694;19;20058;-85
2022/08/15 12:06:36;;;;;;;1.70;1.60;;;25.50;62.70;;;;;;7373256;19;20014;-84
2022/08/15 12:09:14;;;;;;;2.03;1.80;;;25.60;63.90;;;;;;7372729;19;20014;-84
2022/08/15 12:11:48;;;;;;;3.60;2.90;;;25.60;63.80;;;;;;7373135;19;20010;-84
2022/08/15 12:14:22;;;;;;;1.92;1.75;;;25.60;63.50;;;;;;7374118;19;20011;-84
2022/08/15 12:16:56;;;;;;;3.88;1.92;;;25.70;62.60;;;;;;7372543;19;20453;-84
2022/08/15 12:19:46;;;;;;;3.40;3.05;;;25.80;63.50;;;;;;7395695;19;20082;-84
2022/08/15 12:22:30;;;;;;;2.95;1.42;;;25.80;65.40;;;;;;7372477;19;20018;-84
2022/08/15 12:25:00;;;;;;;2.00;1.70;;;26.10;64.70;;;;;;7370858;19;20006;-84
2022/08/15 12:27:31;;;;;;;2.75;1.42;;;26.20;61.40;;;;;;7371610;19;20632;-85
2022/08/15 12:30:00;;;;;;;1.30;1.20;;;26.30;62.40;;;;;;7372991;19;20014;-85
2022/08/15 12:32:32;;;;;;;1.30;1.20;;;26.50;62.20;;;;;;7373178;19;20430;-84
2022/08/15 12:35:01;;;;;;;1.85;1.40;;;26.60;61.90;;;;;;7370266;19;20503;-84
2022/08/15 12:37:30;;;;;;;1.42;1.33;;;26.70;60.10;;;;;;7392589;19;20035;-84
2022/08/15 12:40:04;;;;;;;2.75;1.50;;;26.80;59.30;;;;;;7372540;19;20011;-84
2022/08/15 12:42:40;;;;;;;1.73;1.10;;;26.90;58.80;;;;;;7373632;19;20118;-85
2022/08/15 12:45:18;;;;;;;1.45;1.00;;;26.70;59.20;;;;;;7371144;19;20074;-85
2022/08/15 12:47:54;;;;;;;1.35;1.10;;;26.70;58.00;;;;;;7376778;19;20098;-83
2022/08/15 12:50:24;;;;;;;0.95;0.95;;;26.70;57.00;;;;;;7372266;19;20022;-85
2022/08/15 12:52:53;;;;;;;3.63;1.17;;;26.60;57.10;;;;;;7374655;19;20023;-85
2022/08/15 12:55:22;;;;;;;2.88;1.17;;;26.60;56.30;;;;;;7393603;19;20015;-85
2022/08/15 12:57:51;;;;;;;1.55;1.42;;;26.60;56.20;;;;;;7371643;19;20056;-85
2022/08/15 13:00:20;;;;;;;1.70;1.58;;;26.60;56.40;;;;;;7372308;19;20087;-85
2022/08/15 13:02:52;;;;;;;2.78;1.60;;;26.60;56.30;;;;;;7372659;19;20329;-82
2022/08/15 13:05:30;;;;;;;1.70;1.60;;;26.60;56.70;;;;;;7375058;19;20040;-83
2022/08/15 13:07:59;;;;;;;4.80;1.88;;;26.70;56.70;;;;;;7373750;19;20018;-85
2022/08/15 13:10:28;;;;;;;2.25;1.90;;;26.80;57.20;;;;;;7394346;19;20022;-84
2022/08/15 13:12:57;;;;;;;3.63;2.10;;;26.90;56.90;;;;;;7371499;19;20765;-83
2022/08/15 13:15:25;;;;;;;3.70;2.15;;;26.80;55.70;;;;;;7371846;19;20006;-84
2022/08/15 13:17:59;;;;;;;2.40;2.20;;;26.90;56.20;;;;;;7372957;19;20760;-83
2022/08/15 13:25:58;;;;;;;4.68;2.75;;;27.10;56.40;;;;;;7383300;19;19995;-84
2022/08/15 13:28:29;;;;;;;4.60;2.83;;;27.00;56.60;;;;;;7426659;19;20010;-84
2022/08/15 13:31:01;;;;;;;3.75;3.35;;;27.00;56.50;;;;;;7403183;19;20034;-84